McCarran International, NV

7:29 AM PDT on May 25, 2015 (GMT -0700)
Wishing Well Estates | | Change Station
CLOSE
Current Station
Personal Weather Station
Location: Las Vegas, NV
Elevation: 2083 ft
Nearby Weather Stations

Elev 2083 ft 36.05 °N, 115.13 °W | Updated 2 minutes ago

Partly Cloudy
Partly Cloudy
69.1 °F
Feels Like 69.1 °F
N
2.2
Wind Variable Wind from NNE

Today
High -- | Low -- °F
--% Chance of Precip.
Yesterday
High -- | Low -- °F
Precip. -- in
5:28 AM 7:47 PM
Waxing Crescent, 49% visible
Pressure 29.85 in
Visibility 10.0 miles
Clouds Few 18000 ft
Few 25000 ft
Dew Point 56 °F
Humidity 64%
Rainfall 0.00 in
Snow Depth Not available.
UV 1 out of 12
Pollen 6.00 out of 12
Air Quality Not available.
Flu Activity Sporadic
METAR KLAS 251356Z 17004KT 10SM FEW180 FEW250 18/12 A2990 RMK AO2 SLP106 T01780122 $

More Conditions Fewer Conditions

Pressure 29.85 in
Visibility 10.0 miles
Clouds Few 18000 ft
Few 25000 ft
Dew Point 56 °F
Humidity 64%
Rainfall 0.00 in
Snow Depth Not available.
UV 1 out of 12
Pollen 6.00 out of 12
Air Quality Not available.
Flu Activity Sporadic
METAR KLAS 251356Z 17004KT 10SM FEW180 FEW250 18/12 A2990 RMK AO2 SLP106 T01780122 $

More Conditions Fewer Conditions

10-Day Weather Forecast

Almanac

Astronomy

May. 25, 2015 Rise Set
Actual Time
Civil Twilight
Nautical Twilight
Astronomical Twilight
Moon
Length of Visible Light
Length of Day
Tomorrow will be .
, % of the Moon is Illuminated

Today's Extremes

State Highs State Lows

Community

WunderPhotos

Upload Photos

1,824,025 photos uploaded!

WunderBlogs® & News

Nearby

Air Quality

  Air Quality AQ Index Pollutant
Not available.

Snow Depth

Station Depth Elevation

Earthquake Activity

City Distance Mag. Time & Date
Minimum magnitude displayed is 2.5.

Coastal Water Temperatures

Place Temperature

Stations

Nearby Weather Stations

Station Location Temp. Windchill Dew Point Humidity Wind Precip. Elev Updated Type